Mirgab Vi — ZGAO4 — position and weather

sailwx.info

Track history (hours):
 
Tides and Currents Weather Stations Pressure Air Temp Water Temp Dewpoint Dewpoint Depression Visibility Wind Speed Wind Dir Waves Ship Positions

Mirgab Vi

Last reported at 2018-Apr-14 09:20 UTC. Time now 2018-Apr-20 08:53 UTC.
Position N 31°40' E 032°03'.

Length 49 m; draft 2.9 m.

Type: Pleasure craft. MMSI: 319394000.

Date/timePositionNaut miles runAvg speedWind from/ knotsBaromVisibWave heightAir tempDewpointWater temp
2018-Apr-14 09:20N 31°40' E 032°03'3 9.5
2018-Apr-14 09:00N 31°42' E 032°00'  
2018-Apr-08 11:50N 37°44' E 015°52'2011.5
2018-Apr-08 10:07N 37°57' E 015°34'112.7
2018-Apr-08 10:01N 37°58' E 015°34'1012.8
2018-Apr-08 09:14N 38°08' E 015°34'312.9
2018-Apr-08 09:00N 38°11' E 015°35'611.7
2018-Apr-08 08:29N 38°16' E 015°40'510.1
2018-Apr-08 07:58N 38°21' E 015°37'711.1
2018-Apr-08 07:18N 38°26' E 015°31'9811.4
2018-Apr-07 22:42N 39°32' E 013°58'211.6
2018-Apr-07 22:29N 39°34' E 013°56'511.6
2018-Apr-07 22:00N 39°38' E 013°50'611.2
2018-Apr-07 21:30N 39°41' E 013°45'711.4
2018-Apr-07 20:55N 39°46' E 013°38'811.6
2018-Apr-07 20:13N 39°51' E 013°30'311.6
2018-Apr-07 20:00N 39°53' E 013°28'6011.5
2018-Apr-07 14:47N 40°33' E 012°29'16511.2
2018-Apr-07 00:08N 42°24' E 009°47'711.0
2018-Apr-06 23:28N 42°31' E 009°45'511.4
2018-Apr-06 23:00N 42°36' E 009°43'611.2
2018-Apr-06 22:30N 42°42' E 009°41'811.6
2018-Apr-06 21:49N 42°50' E 009°39'411.9
2018-Apr-06 21:30N 42°53' E 009°37'612.1
2018-Apr-06 21:00N 42°59' E 009°35'611.5
2018-Apr-06 20:30N 43°05' E 009°33'510.5
2018-Apr-06 20:00N 43°07' E 009°27'611.8
2018-Apr-06 19:30N 43°08' E 009°19'612.3
2018-Apr-06 19:00N 43°09' E 009°11'611.8
2018-Apr-06 18:30N 43°11' E 009°03'611.6
2018-Apr-06 17:58N 43°12' E 008°55'611.8
2018-Apr-06 17:25N 43°13' E 008°46'511.8
2018-Apr-06 17:00N 43°14' E 008°39'611.4
2018-Apr-06 16:30N 43°16' E 008°32'611.5
2018-Apr-06 15:59N 43°17' E 008°24'911.6
2018-Apr-06 15:11N 43°19' E 008°11'211.6
2018-Apr-06 15:00N 43°19' E 008°08'611.7
2018-Apr-06 14:30N 43°20' E 008°00'611.8
2018-Apr-06 14:00N 43°22' E 007°52'711.6
2018-Apr-06 13:24N 43°23' E 007°43'511.6
2018-Apr-06 12:58N 43°24' E 007°36'1211.5
2018-Apr-06 11:54N 43°27' E 007°20'410.9
2018-Apr-06 11:30N 43°28' E 007°14'510.7
2018-Apr-06 11:00N 43°29' E 007°07'5 9.5
2018-Apr-06 10:30N 43°31' E 007°01'1 2.8
2018-Apr-06 10:00N 43°32' E 007°02'0 0.0
2018-Apr-06 09:26N 43°32' E 007°02'0 0.0
2018-Apr-06 09:00N 43°32' E 007°02'0 0.0
2018-Apr-06 08:31N 43°32' E 007°02'0 0.0
2018-Apr-06 07:59N 43°32' E 007°02'0 0.0
2018-Apr-06 07:29N 43°32' E 007°02'0 0.0
2018-Apr-06 06:59N 43°32' E 007°02'0 0.0
2018-Apr-06 06:29N 43°32' E 007°02'0 0.0
2018-Apr-06 05:56N 43°32' E 007°02'0 0.0
2018-Apr-06 05:29N 43°32' E 007°02'0 0.0
2018-Apr-06 04:59N 43°32' E 007°02'0 0.0
2018-Apr-06 04:26N 43°32' E 007°02'0 0.0
2018-Apr-06 03:59N 43°32' E 007°02'0 0.0
2018-Apr-06 03:29N 43°32' E 007°02'0 0.0
2018-Apr-06 02:59N 43°32' E 007°02'0 0.0
2018-Apr-06 02:26N 43°32' E 007°02'0 0.0
2018-Apr-06 01:56N 43°32' E 007°02'0 0.0
2018-Apr-06 01:29N 43°32' E 007°02'0 0.0
2018-Apr-06 00:59N 43°32' E 007°02'0 0.0
2018-Apr-06 00:29N 43°32' E 007°02'0 0.0
2018-Apr-05 23:56N 43°32' E 007°02'0 0.0
2018-Apr-05 23:26N 43°32' E 007°02'0 0.0
2018-Apr-05 22:56N 43°32' E 007°02'0 0.0
2018-Apr-05 22:29N 43°32' E 007°02'0 0.0
2018-Apr-05 21:59N 43°32' E 007°02'0 0.0
2018-Apr-05 21:29N 43°32' E 007°02'0 0.0
2018-Apr-05 20:59N 43°32' E 007°02'0 0.0
2018-Apr-05 20:26N 43°32' E 007°02'0 0.0
2018-Apr-05 19:59N 43°32' E 007°02'0 0.0
2018-Apr-05 19:29N 43°32' E 007°02'0 0.0
2018-Apr-05 18:59N 43°32' E 007°02'0 0.0
2018-Apr-05 18:29N 43°32' E 007°02'0 0.0
2018-Apr-05 17:56N 43°32' E 007°02'0 0.0
2018-Apr-05 17:26N 43°32' E 007°02'0 0.0
2018-Apr-05 16:59N 43°32' E 007°02'0 0.0
2018-Apr-05 16:26N 43°32' E 007°02'0 0.0
2018-Apr-05 15:59N 43°32' E 007°02'0 0.0
2018-Apr-05 15:29N 43°32' E 007°02'0 0.0
2018-Apr-05 14:59N 43°32' E 007°02'0 0.0
2018-Apr-05 14:29N 43°32' E 007°02'0 0.0
2018-Apr-05 13:59N 43°32' E 007°02'0 0.0
2018-Apr-05 13:26N 43°32' E 007°02'0 0.0
2018-Apr-05 12:59N 43°32' E 007°02'0 0.0
2018-Apr-05 12:26N 43°32' E 007°02'0 0.0
2018-Apr-05 11:56N 43°32' E 007°02'0 0.0
2018-Apr-05 11:29N 43°32' E 007°02'0 0.0
2018-Apr-05 10:56N 43°32' E 007°02'0 0.0
2018-Apr-05 10:29N 43°32' E 007°02'0 0.0
2018-Apr-05 09:59N 43°32' E 007°02'0 0.0
2018-Apr-05 09:29N 43°32' E 007°02'0 0.0
2018-Apr-05 08:59N 43°32' E 007°02'0 0.0
2018-Apr-05 08:29N 43°32' E 007°02'0 0.0
2018-Apr-05 07:59N 43°32' E 007°02'0 0.0
2018-Apr-05 07:29N 43°32' E 007°02'0 0.0
2018-Apr-05 06:59N 43°32' E 007°02'0 0.0
2018-Apr-05 06:29N 43°32' E 007°02'0 0.0
2018-Apr-05 05:59N 43°32' E 007°02'0 0.0
2018-Apr-05 05:29N 43°32' E 007°02'0 0.0
2018-Apr-05 04:59N 43°32' E 007°02'0 0.0
2018-Apr-05 04:29N 43°32' E 007°02'0 0.0
2018-Apr-05 03:59N 43°32' E 007°02'0 0.0
2018-Apr-05 03:23N 43°32' E 007°02'0 0.0
2018-Apr-05 02:59N 43°32' E 007°02'0 0.0
2018-Apr-05 02:29N 43°32' E 007°02'0 0.0
2018-Apr-05 01:59N 43°32' E 007°02'0 0.0
2018-Apr-05 01:29N 43°32' E 007°02'0 0.0
2018-Apr-05 00:59N 43°32' E 007°02'0 0.0
2018-Apr-05 00:29N 43°32' E 007°02'0 0.0
2018-Apr-04 23:59N 43°32' E 007°02'0 0.0
2018-Apr-04 23:26N 43°32' E 007°02'0 0.0
2018-Apr-04 22:59N 43°32' E 007°02'0 0.0
2018-Apr-04 22:29N 43°32' E 007°02'0 0.0
2018-Apr-04 21:59N 43°32' E 007°02'0 0.0
2018-Apr-04 21:26N 43°32' E 007°02'0 0.0
2018-Apr-04 20:59N 43°32' E 007°02'0 0.0
2018-Apr-04 20:29N 43°32' E 007°02'0 0.0
2018-Apr-04 19:59N 43°32' E 007°02'0 0.0
2018-Apr-04 19:29N 43°32' E 007°02'0 0.0
2018-Apr-04 18:59N 43°32' E 007°02'0 0.0
2018-Apr-04 18:29N 43°32' E 007°02'0 0.0
2018-Apr-04 17:59N 43°32' E 007°02'0 0.0
2018-Apr-04 17:29N 43°32' E 007°02'0 0.0
2018-Apr-04 16:59N 43°32' E 007°02'0 0.0
2018-Apr-04 16:29N 43°32' E 007°02'0 0.0
2018-Apr-04 15:59N 43°32' E 007°02'0 0.0
2018-Apr-04 15:29N 43°32' E 007°02'0 0.0
2018-Apr-04 14:59N 43°32' E 007°02'0 0.0
2018-Apr-04 14:29N 43°32' E 007°02'0 0.0
2018-Apr-04 13:59N 43°32' E 007°02'0 0.1
2018-Apr-04 13:29N 43°32' E 007°02'0 0.1
2018-Apr-04 12:59N 43°32' E 007°02'0 0.0
2018-Apr-04 12:29N 43°32' E 007°02'0 0.0
2018-Apr-04 11:59N 43°32' E 007°02'0 0.0
2018-Apr-04 11:29N 43°32' E 007°02'0 0.0
2018-Apr-04 10:59N 43°32' E 007°02'0 0.0
2018-Apr-04 10:26N 43°32' E 007°02'0 0.0
2018-Apr-04 09:59N 43°32' E 007°02'0 0.0
2018-Apr-04 09:29N 43°32' E 007°02'  
Track history (hours):
 
Tides and Currents Weather Stations Pressure Air Temp Water Temp Dewpoint Dewpoint Depression Visibility Wind Speed Wind Dir Waves Ship Positions

Mirgab Vi

Last reported at 2018-Apr-14 09:20 UTC. Time now 2018-Apr-20 08:53 UTC.
Position N 31°40' E 032°03'.

Length 49 m; draft 2.9 m.

Type: Pleasure craft. MMSI: 319394000.

Date/timePositionNaut miles runAvg speedWind from/ knotsBaromVisibWave heightAir tempDewpointWater temp
2018-Apr-14 09:20N 31°40' E 032°03'3 9.5
2018-Apr-14 09:00N 31°42' E 032°00'  
2018-Apr-08 11:50N 37°44' E 015°52'2011.5
2018-Apr-08 10:07N 37°57' E 015°34'112.7
2018-Apr-08 10:01N 37°58' E 015°34'1012.8
2018-Apr-08 09:14N 38°08' E 015°34'312.9
2018-Apr-08 09:00N 38°11' E 015°35'611.7
2018-Apr-08 08:29N 38°16' E 015°40'510.1
2018-Apr-08 07:58N 38°21' E 015°37'711.1
2018-Apr-08 07:18N 38°26' E 015°31'9811.4
2018-Apr-07 22:42N 39°32' E 013°58'211.6
2018-Apr-07 22:29N 39°34' E 013°56'511.6
2018-Apr-07 22:00N 39°38' E 013°50'611.2
2018-Apr-07 21:30N 39°41' E 013°45'711.4
2018-Apr-07 20:55N 39°46' E 013°38'811.6
2018-Apr-07 20:13N 39°51' E 013°30'311.6
2018-Apr-07 20:00N 39°53' E 013°28'6011.5
2018-Apr-07 14:47N 40°33' E 012°29'16511.2
2018-Apr-07 00:08N 42°24' E 009°47'711.0
2018-Apr-06 23:28N 42°31' E 009°45'511.4
2018-Apr-06 23:00N 42°36' E 009°43'611.2
2018-Apr-06 22:30N 42°42' E 009°41'811.6
2018-Apr-06 21:49N 42°50' E 009°39'411.9
2018-Apr-06 21:30N 42°53' E 009°37'612.1
2018-Apr-06 21:00N 42°59' E 009°35'611.5
2018-Apr-06 20:30N 43°05' E 009°33'510.5
2018-Apr-06 20:00N 43°07' E 009°27'611.8
2018-Apr-06 19:30N 43°08' E 009°19'612.3
2018-Apr-06 19:00N 43°09' E 009°11'611.8
2018-Apr-06 18:30N 43°11' E 009°03'611.6
2018-Apr-06 17:58N 43°12' E 008°55'611.8
2018-Apr-06 17:25N 43°13' E 008°46'511.8
2018-Apr-06 17:00N 43°14' E 008°39'611.4
2018-Apr-06 16:30N 43°16' E 008°32'611.5
2018-Apr-06 15:59N 43°17' E 008°24'911.6
2018-Apr-06 15:11N 43°19' E 008°11'211.6
2018-Apr-06 15:00N 43°19' E 008°08'611.7
2018-Apr-06 14:30N 43°20' E 008°00'611.8
2018-Apr-06 14:00N 43°22' E 007°52'711.6
2018-Apr-06 13:24N 43°23' E 007°43'511.6
2018-Apr-06 12:58N 43°24' E 007°36'1211.5
2018-Apr-06 11:54N 43°27' E 007°20'410.9
2018-Apr-06 11:30N 43°28' E 007°14'510.7
2018-Apr-06 11:00N 43°29' E 007°07'5 9.5
2018-Apr-06 10:30N 43°31' E 007°01'1 2.8
2018-Apr-06 10:00N 43°32' E 007°02'0 0.0
2018-Apr-06 09:26N 43°32' E 007°02'0 0.0
2018-Apr-06 09:00N 43°32' E 007°02'0 0.0
2018-Apr-06 08:31N 43°32' E 007°02'0 0.0
2018-Apr-06 07:59N 43°32' E 007°02'0 0.0
2018-Apr-06 07:29N 43°32' E 007°02'0 0.0
2018-Apr-06 06:59N 43°32' E 007°02'0 0.0
2018-Apr-06 06:29N 43°32' E 007°02'0 0.0
2018-Apr-06 05:56N 43°32' E 007°02'0 0.0
2018-Apr-06 05:29N 43°32' E 007°02'0 0.0
2018-Apr-06 04:59N 43°32' E 007°02'0 0.0
2018-Apr-06 04:26N 43°32' E 007°02'0 0.0
2018-Apr-06 03:59N 43°32' E 007°02'0 0.0
2018-Apr-06 03:29N 43°32' E 007°02'0 0.0
2018-Apr-06 02:59N 43°32' E 007°02'0 0.0
2018-Apr-06 02:26N 43°32' E 007°02'0 0.0
2018-Apr-06 01:56N 43°32' E 007°02'0 0.0
2018-Apr-06 01:29N 43°32' E 007°02'0 0.0
2018-Apr-06 00:59N 43°32' E 007°02'0 0.0
2018-Apr-06 00:29N 43°32' E 007°02'0 0.0
2018-Apr-05 23:56N 43°32' E 007°02'0 0.0
2018-Apr-05 23:26N 43°32' E 007°02'0 0.0
2018-Apr-05 22:56N 43°32' E 007°02'0 0.0
2018-Apr-05 22:29N 43°32' E 007°02'0 0.0
2018-Apr-05 21:59N 43°32' E 007°02'0 0.0
2018-Apr-05 21:29N 43°32' E 007°02'0 0.0
2018-Apr-05 20:59N 43°32' E 007°02'0 0.0
2018-Apr-05 20:26N 43°32' E 007°02'0 0.0
2018-Apr-05 19:59N 43°32' E 007°02'0 0.0
2018-Apr-05 19:29N 43°32' E 007°02'0 0.0
2018-Apr-05 18:59N 43°32' E 007°02'0 0.0
2018-Apr-05 18:29N 43°32' E 007°02'0 0.0
2018-Apr-05 17:56N 43°32' E 007°02'0 0.0
2018-Apr-05 17:26N 43°32' E 007°02'0 0.0
2018-Apr-05 16:59N 43°32' E 007°02'0 0.0
2018-Apr-05 16:26N 43°32' E 007°02'0 0.0
2018-Apr-05 15:59N 43°32' E 007°02'0 0.0
2018-Apr-05 15:29N 43°32' E 007°02'0 0.0
2018-Apr-05 14:59N 43°32' E 007°02'0 0.0
2018-Apr-05 14:29N 43°32' E 007°02'0 0.0
2018-Apr-05 13:59N 43°32' E 007°02'0 0.0
2018-Apr-05 13:26N 43°32' E 007°02'0 0.0
2018-Apr-05 12:59N 43°32' E 007°02'0 0.0
2018-Apr-05 12:26N 43°32' E 007°02'0 0.0
2018-Apr-05 11:56N 43°32' E 007°02'0 0.0
2018-Apr-05 11:29N 43°32' E 007°02'0 0.0
2018-Apr-05 10:56N 43°32' E 007°02'0 0.0
2018-Apr-05 10:29N 43°32' E 007°02'0 0.0
2018-Apr-05 09:59N 43°32' E 007°02'0 0.0
2018-Apr-05 09:29N 43°32' E 007°02'0 0.0
2018-Apr-05 08:59N 43°32' E 007°02'0 0.0
2018-Apr-05 08:29N 43°32' E 007°02'0 0.0
2018-Apr-05 07:59N 43°32' E 007°02'0 0.0
2018-Apr-05 07:29N 43°32' E 007°02'0 0.0
2018-Apr-05 06:59N 43°32' E 007°02'0 0.0
2018-Apr-05 06:29N 43°32' E 007°02'0 0.0
2018-Apr-05 05:59N 43°32' E 007°02'0 0.0
2018-Apr-05 05:29N 43°32' E 007°02'0 0.0
2018-Apr-05 04:59N 43°32' E 007°02'0 0.0
2018-Apr-05 04:29N 43°32' E 007°02'0 0.0
2018-Apr-05 03:59N 43°32' E 007°02'0 0.0
2018-Apr-05 03:23N 43°32' E 007°02'0 0.0
2018-Apr-05 02:59N 43°32' E 007°02'0 0.0
2018-Apr-05 02:29N 43°32' E 007°02'0 0.0
2018-Apr-05 01:59N 43°32' E 007°02'0 0.0
2018-Apr-05 01:29N 43°32' E 007°02'0 0.0
2018-Apr-05 00:59N 43°32' E 007°02'0 0.0
2018-Apr-05 00:29N 43°32' E 007°02'0 0.0
2018-Apr-04 23:59N 43°32' E 007°02'0 0.0
2018-Apr-04 23:26N 43°32' E 007°02'0 0.0
2018-Apr-04 22:59N 43°32' E 007°02'0 0.0
2018-Apr-04 22:29N 43°32' E 007°02'0 0.0
2018-Apr-04 21:59N 43°32' E 007°02'0 0.0
2018-Apr-04 21:26N 43°32' E 007°02'0 0.0
2018-Apr-04 20:59N 43°32' E 007°02'0 0.0
2018-Apr-04 20:29N 43°32' E 007°02'0 0.0
2018-Apr-04 19:59N 43°32' E 007°02'0 0.0
2018-Apr-04 19:29N 43°32' E 007°02'0 0.0
2018-Apr-04 18:59N 43°32' E 007°02'0 0.0
2018-Apr-04 18:29N 43°32' E 007°02'0 0.0
2018-Apr-04 17:59N 43°32' E 007°02'0 0.0
2018-Apr-04 17:29N 43°32' E 007°02'0 0.0
2018-Apr-04 16:59N 43°32' E 007°02'0 0.0
2018-Apr-04 16:29N 43°32' E 007°02'0 0.0
2018-Apr-04 15:59N 43°32' E 007°02'0 0.0
2018-Apr-04 15:29N 43°32' E 007°02'0 0.0
2018-Apr-04 14:59N 43°32' E 007°02'0 0.0
2018-Apr-04 14:29N 43°32' E 007°02'0 0.0
2018-Apr-04 13:59N 43°32' E 007°02'0 0.1
2018-Apr-04 13:29N 43°32' E 007°02'0 0.1
2018-Apr-04 12:59N 43°32' E 007°02'0 0.0
2018-Apr-04 12:29N 43°32' E 007°02'0 0.0
2018-Apr-04 11:59N 43°32' E 007°02'0 0.0
2018-Apr-04 11:29N 43°32' E 007°02'0 0.0
2018-Apr-04 10:59N 43°32' E 007°02'0 0.0
2018-Apr-04 10:26N 43°32' E 007°02'0 0.0
2018-Apr-04 09:59N 43°32' E 007°02'0 0.0
2018-Apr-04 09:29N 43°32' E 007°02'  

Dump ship's entire track history